CheckWX is a tool to help pilots better visualize weather data.  It is not intended as a substitute for an official pre-flight weather briefing.

12:44:06 UTC

KSPI TAF
Abraham Lincoln Capital Airport
Springfield, Illinois, USA
KSPI 161151Z 1612/1712 24006KT P6SM SCT030 TEMPO 1612/1614 BKN030 FM161400 25008KT P6SM VCTS OVC040CB FM170600 03005KT P6SM OVC030 FM171000 VRB04KT P6SM OVC009

Jun-16@
12:00 UTC

Jun-16 @ 12:00 UTC

Jun-16@
14:00 UTC

Jun-16 @ 14:00 UTC

KSPI 161151Z 1612/1712 24006KT P6SM SCT030
Wind
  • 240° at 6 KTS
Cloud Levels
  • Scattered at 3,000' AGL

Jun-16@
12:00 UTC

Jun-16 @ 12:00 UTC

Jun-16@
14:00 UTC

Jun-16 @ 14:00 UTC

TEMPO 1612/1614 BKN030

Temporary

Temporary Changes expected for less than half the time period

Cloud Levels
  • Broken at 3,000' AGL

Jun-16@
14:00 UTC

Jun-16 @ 14:00 UTC

Jun-17@
06:00 UTC

Jun-17 @ 06:00 UTC

FM161400 25008KT P6SM VCTS OVC040CB

From

From Standard forecast or significant change

Wind
  • 250° at 8 KTS
Conditions
Area Thunderstorm
Cloud Levels
  • Overcast at 4,000' AGL

Jun-17@
06:00 UTC

Jun-17 @ 06:00 UTC

Jun-17@
10:00 UTC

Jun-17 @ 10:00 UTC

FM170600 03005KT P6SM OVC030

From

From Standard forecast or significant change

Wind
  • 030° at 5 KTS
Cloud Levels
  • Overcast at 3,000' AGL

Jun-17@
10:00 UTC

Jun-17 @ 10:00 UTC

Jun-17@
12:00 UTC

Jun-17 @ 12:00 UTC

FM171000 VRB04KT P6SM OVC009

From

From Standard forecast or significant change

Wind
  • Variable at 4 KTS
Cloud Levels
  • Overcast at 900' AGL